Augustenborg, Denmark
Current Conditions -  °F | °C
As of 6:20 AM on Sunday 21 Dec 2014 (Local Time) from ETGG Reporting Station
Scattered Clouds Scattered Clouds  
Wind Chill:   Ceiling: Unl
Heat Index:   Visibility: 6mi
Dew Point:   Wind: 22mph
Humidity: 81%   Direction: 280°W
Pressure: 30.09"   Gusts: NA
Location:  54.95°N, 9.87°E
Report Text: ETGG 210520Z 28019KT 9999 SCT048 06/03 Q1019 BLU+
Loading
Personal Weather Stations






























Interactive Weather Map New forecast layout! Learn more

10-Day Weather Forecast

Advertisements
Track Severe Weather on mobile